sensor_id;sensor_type;location;lat;lon;timestamp;P1;durP1;ratioP1;P2;durP2;ratioP2
19095;SDS011;9680;52.520;13.332;2023-10-19T00:00:46;19.37;;;9.03;;
19095;SDS011;9680;52.520;13.332;2023-10-19T00:03:15;18.90;;;8.47;;
19095;SDS011;9680;52.520;13.332;2023-10-19T00:05:43;20.13;;;9.00;;
19095;SDS011;9680;52.520;13.332;2023-10-19T00:08:10;21.73;;;9.10;;
19095;SDS011;9680;52.520;13.332;2023-10-19T00:10:40;20.87;;;9.17;;
19095;SDS011;9680;52.520;13.332;2023-10-19T00:13:11;21.17;;;9.27;;
19095;SDS011;9680;52.520;13.332;2023-10-19T00:15:38;20.67;;;9.07;;
19095;SDS011;9680;52.520;13.332;2023-10-19T00:18:06;20.90;;;9.60;;
19095;SDS011;9680;52.520;13.332;2023-10-19T00:20:47;20.37;;;9.37;;
19095;SDS011;9680;52.520;13.332;2023-10-19T00:23:17;18.60;;;9.00;;
19095;SDS011;9680;52.520;13.332;2023-10-19T00:25:49;21.97;;;8.50;;
19095;SDS011;9680;52.520;13.332;2023-10-19T00:28:18;23.73;;;9.00;;
19095;SDS011;9680;52.520;13.332;2023-10-19T00:30:45;23.13;;;9.57;;
19095;SDS011;9680;52.520;13.332;2023-10-19T00:33:14;19.20;;;8.97;;
19095;SDS011;9680;52.520;13.332;2023-10-19T00:35:45;24.20;;;9.40;;
19095;SDS011;9680;52.520;13.332;2023-10-19T00:38:25;20.97;;;9.23;;
19095;SDS011;9680;52.520;13.332;2023-10-19T00:41:04;22.73;;;9.13;;
19095;SDS011;9680;52.520;13.332;2023-10-19T00:43:38;21.30;;;8.47;;
19095;SDS011;9680;52.520;13.332;2023-10-19T00:46:09;24.40;;;9.47;;
19095;SDS011;9680;52.520;13.332;2023-10-19T00:48:41;22.60;;;9.13;;
19095;SDS011;9680;52.520;13.332;2023-10-19T00:51:12;21.30;;;8.50;;
19095;SDS011;9680;52.520;13.332;2023-10-19T00:53:52;21.30;;;9.17;;
19095;SDS011;9680;52.520;13.332;2023-10-19T00:56:20;22.63;;;9.50;;
19095;SDS011;9680;52.520;13.332;2023-10-19T00:58:52;20.73;;;8.93;;
19095;SDS011;9680;52.520;13.332;2023-10-19T01:01:26;22.27;;;9.20;;
19095;SDS011;9680;52.520;13.332;2023-10-19T01:03:56;19.17;;;8.83;;
19095;SDS011;9680;52.520;13.332;2023-10-19T01:06:23;23.77;;;9.73;;
19095;SDS011;9680;52.520;13.332;2023-10-19T01:08:52;23.53;;;9.70;;
19095;SDS011;9680;52.520;13.332;2023-10-19T01:11:19;26.37;;;9.87;;
19095;SDS011;9680;52.520;13.332;2023-10-19T01:13:47;21.33;;;9.30;;
19095;SDS011;9680;52.520;13.332;2023-10-19T01:16:17;28.63;;;10.03;;
19095;SDS011;9680;52.520;13.332;2023-10-19T01:18:48;20.07;;;9.40;;
19095;SDS011;9680;52.520;13.332;2023-10-19T01:21:19;23.17;;;9.53;;
19095;SDS011;9680;52.520;13.332;2023-10-19T01:23:52;22.00;;;9.63;;
19095;SDS011;9680;52.520;13.332;2023-10-19T01:26:19;23.77;;;9.73;;
19095;SDS011;9680;52.520;13.332;2023-10-19T01:28:51;25.43;;;10.03;;
19095;SDS011;9680;52.520;13.332;2023-10-19T01:31:23;20.50;;;9.13;;
19095;SDS011;9680;52.520;13.332;2023-10-19T01:33:56;24.33;;;9.67;;
19095;SDS011;9680;52.520;13.332;2023-10-19T01:36:26;23.27;;;10.00;;
19095;SDS011;9680;52.520;13.332;2023-10-19T01:38:56;24.13;;;10.37;;
19095;SDS011;9680;52.520;13.332;2023-10-19T01:41:26;22.57;;;9.67;;
19095;SDS011;9680;52.520;13.332;2023-10-19T01:43:58;24.37;;;10.00;;
19095;SDS011;9680;52.520;13.332;2023-10-19T01:46:29;25.47;;;10.30;;
19095;SDS011;9680;52.520;13.332;2023-10-19T01:48:59;23.67;;;10.13;;
19095;SDS011;9680;52.520;13.332;2023-10-19T01:51:27;24.20;;;10.43;;
19095;SDS011;9680;52.520;13.332;2023-10-19T01:53:57;20.90;;;9.97;;
19095;SDS011;9680;52.520;13.332;2023-10-19T01:56:22;18.13;;;9.07;;
19095;SDS011;9680;52.520;13.332;2023-10-19T01:58:50;23.30;;;9.97;;
19095;SDS011;9680;52.520;13.332;2023-10-19T02:01:17;25.13;;;10.20;;
19095;SDS011;9680;52.520;13.332;2023-10-19T02:03:54;23.63;;;9.57;;
19095;SDS011;9680;52.520;13.332;2023-10-19T02:06:23;24.80;;;10.40;;
19095;SDS011;9680;52.520;13.332;2023-10-19T02:08:54;21.60;;;9.43;;
19095;SDS011;9680;52.520;13.332;2023-10-19T02:11:27;27.27;;;10.60;;
19095;SDS011;9680;52.520;13.332;2023-10-19T02:13:54;23.33;;;10.33;;
19095;SDS011;9680;52.520;13.332;2023-10-19T02:16:25;25.67;;;10.30;;
19095;SDS011;9680;52.520;13.332;2023-10-19T02:18:54;28.23;;;10.27;;
19095;SDS011;9680;52.520;13.332;2023-10-19T02:21:22;24.90;;;9.97;;
19095;SDS011;9680;52.520;13.332;2023-10-19T02:23:48;24.03;;;10.07;;
19095;SDS011;9680;52.520;13.332;2023-10-19T02:26:16;24.07;;;10.10;;
19095;SDS011;9680;52.520;13.332;2023-10-19T02:28:44;28.33;;;10.67;;
19095;SDS011;9680;52.520;13.332;2023-10-19T02:31:10;25.43;;;10.90;;
19095;SDS011;9680;52.520;13.332;2023-10-19T02:33:41;28.90;;;10.80;;
19095;SDS011;9680;52.520;13.332;2023-10-19T02:36:12;27.70;;;11.37;;
19095;SDS011;9680;52.520;13.332;2023-10-19T02:38:39;27.37;;;10.73;;
19095;SDS011;9680;52.520;13.332;2023-10-19T02:41:13;24.87;;;10.13;;
19095;SDS011;9680;52.520;13.332;2023-10-19T02:43:40;24.97;;;10.63;;
19095;SDS011;9680;52.520;13.332;2023-10-19T02:46:12;23.47;;;10.27;;
19095;SDS011;9680;52.520;13.332;2023-10-19T02:48:38;28.53;;;11.07;;
19095;SDS011;9680;52.520;13.332;2023-10-19T02:51:09;27.17;;;10.67;;
19095;SDS011;9680;52.520;13.332;2023-10-19T02:53:36;26.13;;;10.73;;
19095;SDS011;9680;52.520;13.332;2023-10-19T02:56:09;24.70;;;10.43;;
19095;SDS011;9680;52.520;13.332;2023-10-19T02:58:36;26.70;;;9.97;;
19095;SDS011;9680;52.520;13.332;2023-10-19T03:01:12;25.23;;;10.87;;
19095;SDS011;9680;52.520;13.332;2023-10-19T03:03:42;23.97;;;10.27;;
19095;SDS011;9680;52.520;13.332;2023-10-19T03:06:11;25.63;;;10.87;;
19095;SDS011;9680;52.520;13.332;2023-10-19T03:08:37;30.27;;;10.67;;
19095;SDS011;9680;52.520;13.332;2023-10-19T03:11:04;25.50;;;10.67;;
19095;SDS011;9680;52.520;13.332;2023-10-19T03:13:30;22.80;;;10.30;;
19095;SDS011;9680;52.520;13.332;2023-10-19T03:15:58;23.93;;;10.00;;
19095;SDS011;9680;52.520;13.332;2023-10-19T03:18:27;25.83;;;11.23;;
19095;SDS011;9680;52.520;13.332;2023-10-19T03:20:54;26.57;;;11.10;;
19095;SDS011;9680;52.520;13.332;2023-10-19T03:23:19;25.57;;;10.50;;
19095;SDS011;9680;52.520;13.332;2023-10-19T03:25:53;25.03;;;10.70;;
19095;SDS011;9680;52.520;13.332;2023-10-19T03:28:38;27.13;;;11.07;;
19095;SDS011;9680;52.520;13.332;2023-10-19T03:31:06;25.17;;;10.70;;
19095;SDS011;9680;52.520;13.332;2023-10-19T03:33:35;27.90;;;10.83;;
19095;SDS011;9680;52.520;13.332;2023-10-19T03:36:06;23.97;;;10.57;;
19095;SDS011;9680;52.520;13.332;2023-10-19T03:38:38;26.53;;;11.03;;
19095;SDS011;9680;52.520;13.332;2023-10-19T03:41:06;26.80;;;10.87;;
19095;SDS011;9680;52.520;13.332;2023-10-19T03:43:34;27.60;;;10.80;;
19095;SDS011;9680;52.520;13.332;2023-10-19T03:46:05;30.80;;;11.50;;
19095;SDS011;9680;52.520;13.332;2023-10-19T03:48:41;25.20;;;10.80;;
19095;SDS011;9680;52.520;13.332;2023-10-19T03:51:11;26.37;;;11.30;;
19095;SDS011;9680;52.520;13.332;2023-10-19T03:53:40;26.93;;;10.70;;
19095;SDS011;9680;52.520;13.332;2023-10-19T03:56:11;26.17;;;11.20;;
19095;SDS011;9680;52.520;13.332;2023-10-19T03:58:38;25.73;;;10.77;;
19095;SDS011;9680;52.520;13.332;2023-10-19T04:01:08;28.10;;;11.70;;
19095;SDS011;9680;52.520;13.332;2023-10-19T04:03:36;27.47;;;11.40;;
19095;SDS011;9680;52.520;13.332;2023-10-19T04:06:04;27.20;;;11.60;;
19095;SDS011;9680;52.520;13.332;2023-10-19T04:08:31;27.90;;;11.47;;
19095;SDS011;9680;52.520;13.332;2023-10-19T04:11:02;26.50;;;11.47;;
19095;SDS011;9680;52.520;13.332;2023-10-19T04:13:37;31.03;;;10.43;;
19095;SDS011;9680;52.520;13.332;2023-10-19T04:16:04;25.20;;;11.03;;
19095;SDS011;9680;52.520;13.332;2023-10-19T04:18:33;32.23;;;12.40;;
19095;SDS011;9680;52.520;13.332;2023-10-19T04:21:04;28.50;;;11.27;;
19095;SDS011;9680;52.520;13.332;2023-10-19T04:23:31;31.37;;;12.07;;
19095;SDS011;9680;52.520;13.332;2023-10-19T04:26:01;26.13;;;11.40;;
19095;SDS011;9680;52.520;13.332;2023-10-19T04:28:36;29.13;;;11.80;;
19095;SDS011;9680;52.520;13.332;2023-10-19T04:31:10;29.53;;;12.03;;
19095;SDS011;9680;52.520;13.332;2023-10-19T04:33:39;28.90;;;12.57;;
19095;SDS011;9680;52.520;13.332;2023-10-19T04:36:09;26.33;;;11.53;;
19095;SDS011;9680;52.520;13.332;2023-10-19T04:38:36;33.50;;;11.93;;
19095;SDS011;9680;52.520;13.332;2023-10-19T04:41:04;25.70;;;11.70;;
19095;SDS011;9680;52.520;13.332;2023-10-19T04:43:33;26.73;;;12.27;;
19095;SDS011;9680;52.520;13.332;2023-10-19T04:46:00;29.53;;;11.97;;
19095;SDS011;9680;52.520;13.332;2023-10-19T04:48:33;28.53;;;12.13;;
19095;SDS011;9680;52.520;13.332;2023-10-19T04:51:01;28.30;;;12.00;;
19095;SDS011;9680;52.520;13.332;2023-10-19T04:53:30;28.00;;;11.67;;
19095;SDS011;9680;52.520;13.332;2023-10-19T04:55:57;29.87;;;11.53;;
19095;SDS011;9680;52.520;13.332;2023-10-19T04:58:25;29.77;;;12.93;;
19095;SDS011;9680;52.520;13.332;2023-10-19T05:00:53;31.27;;;12.47;;
19095;SDS011;9680;52.520;13.332;2023-10-19T05:03:20;29.13;;;11.70;;
19095;SDS011;9680;52.520;13.332;2023-10-19T05:05:47;31.10;;;12.20;;
19095;SDS011;9680;52.520;13.332;2023-10-19T05:08:13;29.47;;;12.87;;
19095;SDS011;9680;52.520;13.332;2023-10-19T05:10:41;32.77;;;12.57;;
19095;SDS011;9680;52.520;13.332;2023-10-19T05:13:08;30.43;;;12.13;;
19095;SDS011;9680;52.520;13.332;2023-10-19T05:15:35;34.23;;;12.63;;
19095;SDS011;9680;52.520;13.332;2023-10-19T05:18:02;34.63;;;13.17;;
19095;SDS011;9680;52.520;13.332;2023-10-19T05:20:29;31.23;;;12.97;;
19095;SDS011;9680;52.520;13.332;2023-10-19T05:22:56;31.43;;;12.50;;
19095;SDS011;9680;52.520;13.332;2023-10-19T05:25:25;30.13;;;13.20;;
19095;SDS011;9680;52.520;13.332;2023-10-19T05:27:54;33.80;;;13.03;;
19095;SDS011;9680;52.520;13.332;2023-10-19T05:30:20;31.30;;;12.97;;
19095;SDS011;9680;52.520;13.332;2023-10-19T05:32:48;33.03;;;12.97;;
19095;SDS011;9680;52.520;13.332;2023-10-19T05:35:15;32.43;;;12.90;;
19095;SDS011;9680;52.520;13.332;2023-10-19T05:37:48;28.53;;;12.37;;
19095;SDS011;9680;52.520;13.332;2023-10-19T05:40:15;33.03;;;13.47;;
19095;SDS011;9680;52.520;13.332;2023-10-19T05:42:44;30.20;;;12.80;;
19095;SDS011;9680;52.520;13.332;2023-10-19T05:45:12;43.00;;;14.23;;
19095;SDS011;9680;52.520;13.332;2023-10-19T05:47:41;36.80;;;12.93;;
19095;SDS011;9680;52.520;13.332;2023-10-19T05:50:10;30.57;;;13.17;;
19095;SDS011;9680;52.520;13.332;2023-10-19T05:52:39;32.30;;;13.10;;
19095;SDS011;9680;52.520;13.332;2023-10-19T05:55:08;29.27;;;13.03;;
19095;SDS011;9680;52.520;13.332;2023-10-19T05:57:36;32.13;;;13.67;;
19095;SDS011;9680;52.520;13.332;2023-10-19T06:00:06;32.70;;;13.00;;
19095;SDS011;9680;52.520;13.332;2023-10-19T06:02:40;33.03;;;13.73;;
19095;SDS011;9680;52.520;13.332;2023-10-19T06:05:10;33.00;;;14.40;;
19095;SDS011;9680;52.520;13.332;2023-10-19T06:07:37;34.63;;;12.90;;
19095;SDS011;9680;52.520;13.332;2023-10-19T06:10:04;38.13;;;14.70;;
19095;SDS011;9680;52.520;13.332;2023-10-19T06:12:32;35.00;;;14.57;;
19095;SDS011;9680;52.520;13.332;2023-10-19T06:14:59;33.73;;;14.30;;
19095;SDS011;9680;52.520;13.332;2023-10-19T06:17:26;32.90;;;13.97;;
19095;SDS011;9680;52.520;13.332;2023-10-19T06:19:55;37.20;;;14.67;;
19095;SDS011;9680;52.520;13.332;2023-10-19T06:22:21;32.50;;;14.57;;
19095;SDS011;9680;52.520;13.332;2023-10-19T06:24:48;33.10;;;14.57;;
19095;SDS011;9680;52.520;13.332;2023-10-19T06:27:15;38.37;;;14.30;;
19095;SDS011;9680;52.520;13.332;2023-10-19T06:29:42;35.77;;;14.50;;
19095;SDS011;9680;52.520;13.332;2023-10-19T06:32:09;37.80;;;15.03;;
19095;SDS011;9680;52.520;13.332;2023-10-19T06:34:38;31.83;;;13.73;;
19095;SDS011;9680;52.520;13.332;2023-10-19T06:37:06;36.50;;;14.23;;
19095;SDS011;9680;52.520;13.332;2023-10-19T06:39:35;39.90;;;15.27;;
19095;SDS011;9680;52.520;13.332;2023-10-19T06:42:06;38.40;;;15.50;;
19095;SDS011;9680;52.520;13.332;2023-10-19T06:44:40;37.97;;;15.20;;
19095;SDS011;9680;52.520;13.332;2023-10-19T06:47:08;40.13;;;15.37;;
19095;SDS011;9680;52.520;13.332;2023-10-19T06:49:35;31.73;;;14.27;;
19095;SDS011;9680;52.520;13.332;2023-10-19T06:52:02;34.10;;;14.67;;
19095;SDS011;9680;52.520;13.332;2023-10-19T06:54:32;34.43;;;14.33;;
19095;SDS011;9680;52.520;13.332;2023-10-19T06:56:59;39.47;;;15.30;;
19095;SDS011;9680;52.520;13.332;2023-10-19T06:59:28;36.90;;;14.13;;
19095;SDS011;9680;52.520;13.332;2023-10-19T07:01:58;34.60;;;13.93;;
19095;SDS011;9680;52.520;13.332;2023-10-19T07:04:26;36.33;;;15.13;;
19095;SDS011;9680;52.520;13.332;2023-10-19T07:06:53;33.97;;;14.33;;
19095;SDS011;9680;52.520;13.332;2023-10-19T07:09:19;37.13;;;14.23;;
19095;SDS011;9680;52.520;13.332;2023-10-19T07:11:48;35.00;;;14.17;;
19095;SDS011;9680;52.520;13.332;2023-10-19T07:14:18;33.77;;;14.40;;
19095;SDS011;9680;52.520;13.332;2023-10-19T07:16:47;34.97;;;14.37;;
19095;SDS011;9680;52.520;13.332;2023-10-19T07:19:14;36.23;;;14.90;;
19095;SDS011;9680;52.520;13.332;2023-10-19T07:21:41;36.13;;;14.63;;
19095;SDS011;9680;52.520;13.332;2023-10-19T07:24:08;38.93;;;14.37;;
19095;SDS011;9680;52.520;13.332;2023-10-19T07:26:36;36.27;;;14.03;;
19095;SDS011;9680;52.520;13.332;2023-10-19T07:29:19;32.60;;;13.53;;
19095;SDS011;9680;52.520;13.332;2023-10-19T07:31:46;29.90;;;13.70;;
19095;SDS011;9680;52.520;13.332;2023-10-19T07:34:13;32.07;;;14.47;;
19095;SDS011;9680;52.520;13.332;2023-10-19T07:36:41;32.77;;;14.17;;
19095;SDS011;9680;52.520;13.332;2023-10-19T07:39:08;34.73;;;13.87;;
19095;SDS011;9680;52.520;13.332;2023-10-19T07:41:39;32.90;;;13.40;;
19095;SDS011;9680;52.520;13.332;2023-10-19T07:44:06;36.00;;;13.60;;
19095;SDS011;9680;52.520;13.332;2023-10-19T07:46:35;34.07;;;13.50;;
19095;SDS011;9680;52.520;13.332;2023-10-19T07:49:01;32.70;;;13.93;;
19095;SDS011;9680;52.520;13.332;2023-10-19T07:51:28;30.77;;;13.07;;
19095;SDS011;9680;52.520;13.332;2023-10-19T07:53:56;28.60;;;12.80;;
19095;SDS011;9680;52.520;13.332;2023-10-19T07:56:23;31.03;;;12.83;;
19095;SDS011;9680;52.520;13.332;2023-10-19T07:58:50;39.93;;;14.00;;
19095;SDS011;9680;52.520;13.332;2023-10-19T08:01:17;31.53;;;13.07;;
19095;SDS011;9680;52.520;13.332;2023-10-19T08:03:45;32.93;;;13.33;;
19095;SDS011;9680;52.520;13.332;2023-10-19T08:06:11;31.33;;;12.97;;
19095;SDS011;9680;52.520;13.332;2023-10-19T08:08:39;32.67;;;13.00;;
19095;SDS011;9680;52.520;13.332;2023-10-19T08:11:07;32.50;;;13.20;;
19095;SDS011;9680;52.520;13.332;2023-10-19T08:13:34;34.27;;;13.83;;
19095;SDS011;9680;52.520;13.332;2023-10-19T08:16:01;35.10;;;13.23;;
19095;SDS011;9680;52.520;13.332;2023-10-19T08:18:28;30.03;;;12.77;;
19095;SDS011;9680;52.520;13.332;2023-10-19T08:20:59;27.77;;;13.10;;
19095;SDS011;9680;52.520;13.332;2023-10-19T08:23:26;33.47;;;14.00;;
19095;SDS011;9680;52.520;13.332;2023-10-19T08:25:53;30.20;;;13.17;;
19095;SDS011;9680;52.520;13.332;2023-10-19T08:28:20;30.40;;;13.43;;
19095;SDS011;9680;52.520;13.332;2023-10-19T08:30:47;31.33;;;12.97;;
19095;SDS011;9680;52.520;13.332;2023-10-19T08:33:22;32.17;;;13.50;;
19095;SDS011;9680;52.520;13.332;2023-10-19T08:35:51;36.10;;;13.60;;
19095;SDS011;9680;52.520;13.332;2023-10-19T08:38:20;30.97;;;13.07;;
19095;SDS011;9680;52.520;13.332;2023-10-19T08:40:47;32.97;;;13.10;;
19095;SDS011;9680;52.520;13.332;2023-10-19T08:43:16;29.87;;;13.67;;
19095;SDS011;9680;52.520;13.332;2023-10-19T08:45:43;31.47;;;13.40;;
19095;SDS011;9680;52.520;13.332;2023-10-19T08:48:11;31.87;;;13.87;;
19095;SDS011;9680;52.520;13.332;2023-10-19T08:50:38;30.47;;;13.10;;
19095;SDS011;9680;52.520;13.332;2023-10-19T08:53:06;31.57;;;13.40;;
19095;SDS011;9680;52.520;13.332;2023-10-19T08:55:35;29.63;;;13.17;;
19095;SDS011;9680;52.520;13.332;2023-10-19T08:58:02;32.17;;;13.07;;
19095;SDS011;9680;52.520;13.332;2023-10-19T09:00:42;30.00;;;13.17;;
19095;SDS011;9680;52.520;13.332;2023-10-19T09:03:13;29.83;;;12.73;;
19095;SDS011;9680;52.520;13.332;2023-10-19T09:05:42;35.87;;;13.17;;
19095;SDS011;9680;52.520;13.332;2023-10-19T09:08:20;28.53;;;12.03;;
19095;SDS011;9680;52.520;13.332;2023-10-19T09:10:49;31.23;;;12.57;;
19095;SDS011;9680;52.520;13.332;2023-10-19T09:13:17;31.37;;;13.70;;
19095;SDS011;9680;52.520;13.332;2023-10-19T09:15:44;29.67;;;12.63;;
19095;SDS011;9680;52.520;13.332;2023-10-19T09:18:12;34.93;;;13.90;;
19095;SDS011;9680;52.520;13.332;2023-10-19T09:20:40;32.13;;;13.23;;
19095;SDS011;9680;52.520;13.332;2023-10-19T09:23:18;33.67;;;13.57;;
19095;SDS011;9680;52.520;13.332;2023-10-19T09:25:52;32.80;;;12.90;;
19095;SDS011;9680;52.520;13.332;2023-10-19T09:28:25;27.33;;;12.50;;
19095;SDS011;9680;52.520;13.332;2023-10-19T09:30:52;28.70;;;12.80;;
19095;SDS011;9680;52.520;13.332;2023-10-19T09:33:19;30.50;;;12.23;;
19095;SDS011;9680;52.520;13.332;2023-10-19T09:35:47;27.93;;;12.63;;
19095;SDS011;9680;52.520;13.332;2023-10-19T09:38:16;31.63;;;12.97;;
19095;SDS011;9680;52.520;13.332;2023-10-19T09:40:47;30.60;;;12.73;;
19095;SDS011;9680;52.520;13.332;2023-10-19T09:43:18;28.03;;;12.67;;
19095;SDS011;9680;52.520;13.332;2023-10-19T09:45:51;29.47;;;12.83;;
19095;SDS011;9680;52.520;13.332;2023-10-19T09:48:19;30.00;;;12.13;;
19095;SDS011;9680;52.520;13.332;2023-10-19T09:50:49;31.43;;;12.10;;
19095;SDS011;9680;52.520;13.332;2023-10-19T09:53:21;28.20;;;12.50;;
19095;SDS011;9680;52.520;13.332;2023-10-19T09:55:50;28.03;;;12.40;;
19095;SDS011;9680;52.520;13.332;2023-10-19T09:58:23;30.23;;;12.83;;
19095;SDS011;9680;52.520;13.332;2023-10-19T10:00:54;30.83;;;12.30;;
19095;SDS011;9680;52.520;13.332;2023-10-19T10:06:17;27.83;;;12.60;;
19095;SDS011;9680;52.520;13.332;2023-10-19T10:08:54;30.33;;;13.53;;
19095;SDS011;9680;52.520;13.332;2023-10-19T10:11:22;32.00;;;12.57;;
19095;SDS011;9680;52.520;13.332;2023-10-19T10:13:53;27.47;;;12.70;;
19095;SDS011;9680;52.520;13.332;2023-10-19T10:16:22;30.93;;;12.93;;
19095;SDS011;9680;52.520;13.332;2023-10-19T10:18:50;31.97;;;13.20;;
19095;SDS011;9680;52.520;13.332;2023-10-19T10:21:24;26.70;;;12.43;;
19095;SDS011;9680;52.520;13.332;2023-10-19T10:23:52;33.70;;;13.33;;
19095;SDS011;9680;52.520;13.332;2023-10-19T10:26:20;27.23;;;11.73;;
19095;SDS011;9680;52.520;13.332;2023-10-19T10:31:42;31.20;;;12.47;;
19095;SDS011;9680;52.520;13.332;2023-10-19T10:34:10;27.73;;;12.93;;
19095;SDS011;9680;52.520;13.332;2023-10-19T10:36:57;27.40;;;12.80;;
19095;SDS011;9680;52.520;13.332;2023-10-19T10:39:25;31.53;;;13.47;;
19095;SDS011;9680;52.520;13.332;2023-10-19T10:41:55;31.97;;;13.67;;
19095;SDS011;9680;52.520;13.332;2023-10-19T10:44:36;31.73;;;14.27;;
19095;SDS011;9680;52.520;13.332;2023-10-19T10:47:05;28.73;;;13.27;;
19095;SDS011;9680;52.520;13.332;2023-10-19T10:49:33;32.93;;;14.03;;
19095;SDS011;9680;52.520;13.332;2023-10-19T10:52:00;29.97;;;13.43;;
19095;SDS011;9680;52.520;13.332;2023-10-19T10:54:27;32.23;;;14.00;;
19095;SDS011;9680;52.520;13.332;2023-10-19T10:56:54;34.30;;;13.97;;
19095;SDS011;9680;52.520;13.332;2023-10-19T10:59:20;30.80;;;13.87;;
19095;SDS011;9680;52.520;13.332;2023-10-19T11:01:48;34.37;;;14.73;;
19095;SDS011;9680;52.520;13.332;2023-10-19T11:04:15;32.20;;;14.77;;
19095;SDS011;9680;52.520;13.332;2023-10-19T11:06:46;34.40;;;14.57;;
19095;SDS011;9680;52.520;13.332;2023-10-19T11:09:14;37.40;;;14.97;;
19095;SDS011;9680;52.520;13.332;2023-10-19T11:11:43;35.40;;;15.03;;
19095;SDS011;9680;52.520;13.332;2023-10-19T11:14:10;32.97;;;15.33;;
19095;SDS011;9680;52.520;13.332;2023-10-19T11:16:37;33.23;;;15.03;;
19095;SDS011;9680;52.520;13.332;2023-10-19T11:19:06;37.53;;;15.37;;
19095;SDS011;9680;52.520;13.332;2023-10-19T11:21:35;40.63;;;15.57;;
19095;SDS011;9680;52.520;13.332;2023-10-19T11:24:02;38.07;;;15.07;;
19095;SDS011;9680;52.520;13.332;2023-10-19T11:26:30;37.90;;;15.27;;
19095;SDS011;9680;52.520;13.332;2023-10-19T11:28:57;36.70;;;15.83;;
19095;SDS011;9680;52.520;13.332;2023-10-19T11:31:24;34.23;;;15.70;;
19095;SDS011;9680;52.520;13.332;2023-10-19T11:33:53;39.33;;;17.00;;
19095;SDS011;9680;52.520;13.332;2023-10-19T11:36:22;40.20;;;16.17;;
19095;SDS011;9680;52.520;13.332;2023-10-19T11:38:50;37.60;;;16.17;;
19095;SDS011;9680;52.520;13.332;2023-10-19T11:41:18;42.80;;;16.87;;
19095;SDS011;9680;52.520;13.332;2023-10-19T11:43:45;40.67;;;15.93;;
19095;SDS011;9680;52.520;13.332;2023-10-19T11:46:14;37.97;;;16.83;;
19095;SDS011;9680;52.520;13.332;2023-10-19T11:48:43;39.73;;;15.97;;
19095;SDS011;9680;52.520;13.332;2023-10-19T11:51:10;34.13;;;16.23;;
19095;SDS011;9680;52.520;13.332;2023-10-19T11:53:40;40.07;;;17.03;;
19095;SDS011;9680;52.520;13.332;2023-10-19T11:56:08;35.97;;;16.50;;
19095;SDS011;9680;52.520;13.332;2023-10-19T11:58:38;40.20;;;16.30;;
19095;SDS011;9680;52.520;13.332;2023-10-19T12:01:07;36.33;;;16.87;;
19095;SDS011;9680;52.520;13.332;2023-10-19T12:03:37;37.63;;;16.37;;
19095;SDS011;9680;52.520;13.332;2023-10-19T12:06:05;35.77;;;16.70;;
19095;SDS011;9680;52.520;13.332;2023-10-19T12:08:32;40.23;;;16.80;;
19095;SDS011;9680;52.520;13.332;2023-10-19T12:11:01;42.70;;;17.33;;
19095;SDS011;9680;52.520;13.332;2023-10-19T12:13:29;38.77;;;17.47;;
19095;SDS011;9680;52.520;13.332;2023-10-19T12:15:56;34.90;;;16.13;;
19095;SDS011;9680;52.520;13.332;2023-10-19T12:18:23;37.80;;;16.80;;
19095;SDS011;9680;52.520;13.332;2023-10-19T12:20:51;37.10;;;16.80;;
19095;SDS011;9680;52.520;13.332;2023-10-19T12:23:22;40.20;;;17.03;;
19095;SDS011;9680;52.520;13.332;2023-10-19T12:25:49;35.80;;;16.40;;
19095;SDS011;9680;52.520;13.332;2023-10-19T12:28:17;38.60;;;17.33;;
19095;SDS011;9680;52.520;13.332;2023-10-19T12:30:46;36.33;;;16.57;;
19095;SDS011;9680;52.520;13.332;2023-10-19T12:33:13;38.80;;;17.23;;
19095;SDS011;9680;52.520;13.332;2023-10-19T12:35:41;36.17;;;16.67;;
19095;SDS011;9680;52.520;13.332;2023-10-19T12:38:11;36.50;;;17.10;;
19095;SDS011;9680;52.520;13.332;2023-10-19T12:40:42;37.03;;;17.07;;
19095;SDS011;9680;52.520;13.332;2023-10-19T12:43:11;40.23;;;17.97;;
19095;SDS011;9680;52.520;13.332;2023-10-19T12:45:40;44.63;;;17.90;;
19095;SDS011;9680;52.520;13.332;2023-10-19T12:48:09;41.73;;;17.80;;
19095;SDS011;9680;52.520;13.332;2023-10-19T12:50:36;39.27;;;18.17;;
19095;SDS011;9680;52.520;13.332;2023-10-19T12:53:04;39.80;;;18.07;;
19095;SDS011;9680;52.520;13.332;2023-10-19T12:55:31;41.90;;;18.70;;
19095;SDS011;9680;52.520;13.332;2023-10-19T12:57:58;38.17;;;17.30;;
19095;SDS011;9680;52.520;13.332;2023-10-19T13:00:31;43.17;;;18.23;;
19095;SDS011;9680;52.520;13.332;2023-10-19T13:03:08;39.93;;;18.20;;
19095;SDS011;9680;52.520;13.332;2023-10-19T13:05:38;39.57;;;17.67;;
19095;SDS011;9680;52.520;13.332;2023-10-19T13:08:06;39.87;;;17.90;;
19095;SDS011;9680;52.520;13.332;2023-10-19T13:10:34;40.43;;;18.73;;
19095;SDS011;9680;52.520;13.332;2023-10-19T13:13:03;44.13;;;18.10;;
19095;SDS011;9680;52.520;13.332;2023-10-19T13:15:31;42.93;;;18.67;;
19095;SDS011;9680;52.520;13.332;2023-10-19T13:18:00;45.50;;;18.87;;
19095;SDS011;9680;52.520;13.332;2023-10-19T13:20:28;46.47;;;19.13;;
19095;SDS011;9680;52.520;13.332;2023-10-19T13:22:59;39.83;;;17.80;;
19095;SDS011;9680;52.520;13.332;2023-10-19T13:25:28;41.90;;;18.70;;
19095;SDS011;9680;52.520;13.332;2023-10-19T13:28:07;42.63;;;18.63;;
19095;SDS011;9680;52.520;13.332;2023-10-19T13:30:41;44.87;;;18.47;;
19095;SDS011;9680;52.520;13.332;2023-10-19T13:33:09;47.80;;;18.67;;
19095;SDS011;9680;52.520;13.332;2023-10-19T13:35:38;42.70;;;18.13;;
19095;SDS011;9680;52.520;13.332;2023-10-19T13:38:09;43.37;;;18.13;;
19095;SDS011;9680;52.520;13.332;2023-10-19T13:40:36;44.47;;;18.20;;
19095;SDS011;9680;52.520;13.332;2023-10-19T13:43:04;42.80;;;18.17;;
19095;SDS011;9680;52.520;13.332;2023-10-19T13:45:33;40.93;;;18.73;;
19095;SDS011;9680;52.520;13.332;2023-10-19T13:48:00;42.10;;;18.47;;
19095;SDS011;9680;52.520;13.332;2023-10-19T13:50:28;44.03;;;18.40;;
19095;SDS011;9680;52.520;13.332;2023-10-19T13:52:56;43.17;;;18.93;;
19095;SDS011;9680;52.520;13.332;2023-10-19T13:55:24;42.77;;;17.80;;
19095;SDS011;9680;52.520;13.332;2023-10-19T13:57:52;47.03;;;19.10;;
19095;SDS011;9680;52.520;13.332;2023-10-19T14:00:20;46.03;;;18.93;;
19095;SDS011;9680;52.520;13.332;2023-10-19T14:02:50;45.07;;;19.13;;
19095;SDS011;9680;52.520;13.332;2023-10-19T14:05:17;47.67;;;18.20;;
19095;SDS011;9680;52.520;13.332;2023-10-19T14:07:45;40.93;;;17.50;;
19095;SDS011;9680;52.520;13.332;2023-10-19T14:10:14;43.67;;;18.77;;
19095;SDS011;9680;52.520;13.332;2023-10-19T14:12:41;41.87;;;19.17;;
19095;SDS011;9680;52.520;13.332;2023-10-19T14:15:13;42.13;;;18.70;;
19095;SDS011;9680;52.520;13.332;2023-10-19T14:17:41;41.20;;;18.30;;
19095;SDS011;9680;52.520;13.332;2023-10-19T14:20:08;41.17;;;18.60;;
19095;SDS011;9680;52.520;13.332;2023-10-19T14:22:39;46.90;;;18.60;;
19095;SDS011;9680;52.520;13.332;2023-10-19T14:25:07;43.97;;;17.77;;
19095;SDS011;9680;52.520;13.332;2023-10-19T14:27:39;41.43;;;18.80;;
19095;SDS011;9680;52.520;13.332;2023-10-19T14:30:08;41.37;;;19.20;;
19095;SDS011;9680;52.520;13.332;2023-10-19T14:32:37;41.53;;;19.17;;
19095;SDS011;9680;52.520;13.332;2023-10-19T14:35:05;47.50;;;19.87;;
19095;SDS011;9680;52.520;13.332;2023-10-19T14:37:35;42.07;;;17.93;;
19095;SDS011;9680;52.520;13.332;2023-10-19T14:40:04;44.93;;;18.43;;